Time;durP1;ratioP1;P1;durP2;ratioP2;P2;SDS_P1;SDS_P2;PMS_P1;PMS_P2;Temp;Humidity;BMP_temperature;BMP_pressure;BME280_temperature;BME280_humidity;BME280_pressure;Samples;Min_cycle;Max_cycle;Signal;HPM_P1;HPM_P2
2021/05/31 00:00:29;;;;;;;2.00;1.00;;;;;;;9.03;73.33;97833.79;1573633;91;21121;-72
2021/05/31 00:02:58;;;;;;;1.57;0.98;;;;;;;9.02;73.62;97833.48;1573976;90;21656;-66
2021/05/31 00:05:25;;;;;;;1.80;1.25;;;;;;;9.00;74.00;97835.84;1573755;91;21086;-71
2021/05/31 00:07:55;;;;;;;3.27;0.98;;;;;;;8.98;74.03;97840.35;1573660;90;21232;-72
2021/05/31 00:10:25;;;;;;;1.72;1.25;;;;;;;8.95;74.23;97836.72;1573690;91;21118;-65
2021/05/31 00:12:52;;;;;;;2.20;1.50;;;;;;;8.93;73.81;97840.75;1573666;90;21601;-72
2021/05/31 00:15:20;;;;;;;2.50;1.55;;;;;;;8.92;74.19;97840.88;1573620;91;21119;-65
2021/05/31 00:17:48;;;;;;;3.10;1.85;;;;;;;8.90;74.41;97844.91;1573601;90;21201;-72
2021/05/31 00:20:17;;;;;;;1.65;1.30;;;;;;;8.88;74.47;97837.73;1573735;91;21078;-65
2021/05/31 00:22:46;;;;;;;1.80;1.00;;;;;;;8.86;74.81;97836.25;1573610;90;21137;-72
2021/05/31 00:25:14;;;;;;;2.08;1.07;;;;;;;8.83;76.00;97832.14;1573749;91;21193;-65
2021/05/31 00:27:41;;;;;;;1.32;1.07;;;;;;;8.79;75.74;97833.39;1589705;89;21136;-71
2021/05/31 00:30:11;;;;;;;1.55;1.15;;;;;;;8.74;75.69;97829.08;1598427;90;21079;-72
2021/05/31 00:32:39;;;;;;;1.55;1.10;;;;;;;8.71;75.47;97831.95;1598799;90;21106;-65
2021/05/31 00:35:08;;;;;;;1.90;1.47;;;;;;;8.69;75.80;97829.95;1598625;89;21572;-72
2021/05/31 00:37:36;;;;;;;3.10;1.40;;;;;;;8.64;76.32;97828.73;1598524;90;21600;-66
2021/05/31 00:40:05;;;;;;;4.97;1.27;;;;;;;8.58;75.34;97828.31;1598542;90;21128;-66
2021/05/31 00:42:32;;;;;;;3.42;1.50;;;;;;;8.54;75.38;97827.41;1598467;90;21075;-72
2021/05/31 00:45:00;;;;;;;1.05;0.90;;;;;;;8.49;75.55;97829.09;1598827;89;21593;-70
2021/05/31 00:47:27;;;;;;;1.90;1.30;;;;;;;8.44;76.92;97829.95;1599373;90;21064;-65
2021/05/31 00:49:54;;;;;;;1.27;1.00;;;;;;;8.35;78.02;97826.89;1598796;90;21103;-69
2021/05/31 00:52:22;;;;;;;2.22;1.00;;;;;;;8.29;76.88;97822.70;1598899;89;21123;-64
2021/05/31 00:54:49;;;;;;;1.92;1.17;;;;;;;8.25;76.46;97822.61;1598835;90;21116;-64
2021/05/31 00:57:17;;;;;;;1.98;1.20;;;;;;;8.22;77.30;97824.14;1598962;90;21552;-70
2021/05/31 00:59:44;;;;;;;1.62;1.00;;;;;;;8.18;77.02;97821.47;1598588;90;21155;-71
2021/05/31 01:02:13;;;;;;;1.72;1.20;;;;;;;8.10;78.28;97819.08;1598705;90;21059;-64
2021/05/31 01:04:40;;;;;;;1.98;1.30;;;;;;;8.07;76.96;97818.52;1598536;90;21092;-66
2021/05/31 01:07:12;;;;;;;1.62;1.10;;;;;;;8.04;77.47;97817.50;1598851;90;21104;-64
2021/05/31 01:09:57;;;;;;;1.07;1.00;;;;;;;8.00;77.85;97812.23;1598864;90;21133;-64
2021/05/31 01:12:55;;;;;;;1.42;0.85;;;;;;;7.95;77.24;97810.50;1598340;89;21121;-70
2021/05/31 01:15:36;;;;;;;1.12;0.70;;;;;;;7.92;77.81;97813.36;1598841;90;21084;-70
2021/05/31 01:18:18;;;;;;;1.65;1.32;;;;;;;7.85;78.34;97811.77;1604064;88;21087;-70
2021/05/31 01:21:12;;;;;;;1.90;0.93;;;;;;;7.79;79.06;97808.86;1598572;90;21052;-72
2021/05/31 01:23:43;;;;;;;2.05;1.17;;;;;;;7.75;80.02;97812.66;1598483;90;21088;-66
2021/05/31 01:26:17;;;;;;;2.37;1.15;;;;;;;7.70;78.88;97808.36;1598701;89;21059;-64
2021/05/31 01:28:54;;;;;;;1.85;1.00;;;;;;;7.68;78.23;97807.66;1598640;90;21067;-66
2021/05/31 01:31:27;;;;;;;1.25;0.80;;;;;;;7.66;78.80;97813.44;1598279;90;21166;-72
2021/05/31 01:33:56;;;;;;;1.92;0.80;;;;;;;7.62;79.16;97805.95;1598391;89;21091;-66
2021/05/31 01:36:25;;;;;;;1.40;1.05;;;;;;;7.59;81.79;97816.98;1598638;90;21080;-66
2021/05/31 01:38:54;;;;;;;1.55;1.12;;;;;;;7.55;80.69;97808.67;1598684;90;21080;-66
2021/05/31 01:41:22;;;;;;;2.02;1.22;;;;;;;7.55;81.49;97805.27;1599511;90;21067;-72
2021/05/31 01:43:50;;;;;;;1.47;0.90;;;;;;;7.53;80.32;97809.29;1598738;88;21096;-65
2021/05/31 01:46:20;;;;;;;2.05;1.27;;;;;;;7.58;78.64;97808.91;1598715;90;21079;-71
2021/05/31 01:48:48;;;;;;;1.65;0.93;;;;;;;7.60;80.13;97805.72;1598552;88;21156;-66
2021/05/31 01:51:16;;;;;;;1.62;1.22;;;;;;;7.62;79.47;97807.72;1598805;90;21188;-66
2021/05/31 01:53:45;;;;;;;1.32;0.90;;;;;;;7.48;80.60;97785.59;1598757;90;21583;-65
2021/05/31 01:56:15;;;;;;;1.47;1.02;;;;;;;7.61;79.58;97801.72;1598635;88;21076;-64
2021/05/31 01:58:43;;;;;;;1.17;1.00;;;;;;;7.60;81.04;97794.91;1598541;90;21739;-64
2021/05/31 02:01:11;;;;;;;1.70;1.07;;;;;;;7.62;79.61;97798.67;1598621;90;21124;-71
2021/05/31 02:03:38;;;;;;;1.22;1.02;;;;;;;7.63;80.48;97795.11;1598796;90;21091;-71
2021/05/31 02:06:05;;;;;;;1.52;1.07;;;;;;;7.63;81.22;97798.98;1598666;90;21083;-70
2021/05/31 02:08:32;;;;;;;2.52;1.10;;;;;;;7.61;81.67;97803.02;1598649;90;21075;-64
2021/05/31 02:11:05;;;;;;;1.77;1.17;;;;;;;7.55;82.55;97793.17;1598602;89;21111;-70
2021/05/31 02:13:34;;;;;;;4.05;1.00;;;;;;;7.58;81.77;97797.28;1598141;90;21203;-71
2021/05/31 02:16:06;;;;;;;1.95;0.98;;;;;;;7.56;82.99;97801.75;1598974;90;21104;-65
2021/05/31 02:18:43;;;;;;;2.50;1.12;;;;;;;7.58;82.14;97797.28;1597782;90;21649;-64
2021/05/31 02:21:14;;;;;;;2.60;0.90;;;;;;;7.62;81.22;97796.08;1598628;90;21044;-71
2021/05/31 02:23:43;;;;;;;1.42;0.90;;;;;;;7.67;79.75;97796.50;1598322;90;21067;-71
2021/05/31 02:26:15;;;;;;;2.02;1.02;;;;;;;7.71;80.16;97799.64;1598432;90;21095;-71
2021/05/31 02:28:44;;;;;;;3.08;1.15;;;;;;;7.72;79.59;97794.35;1605964;89;21090;-71
2021/05/31 02:31:11;;;;;;;1.17;0.80;;;;;;;7.76;78.87;97790.56;1607837;89;21063;-72
2021/05/31 02:33:38;;;;;;;1.00;0.85;;;;;;;7.78;77.75;97788.66;1606676;89;21117;-65
2021/05/31 02:36:06;;;;;;;2.12;1.37;;;;;;;7.81;77.73;97781.13;1602930;89;21121;-65
2021/05/31 02:38:33;;;;;;;1.45;1.00;;;;;;;7.81;78.33;97787.59;1584107;90;21103;-71
2021/05/31 02:41:00;;;;;;;3.62;1.15;;;;;;;7.82;77.84;97785.36;1600191;90;21121;-72
2021/05/31 02:43:27;;;;;;;5.15;1.02;;;;;;;7.81;78.61;97791.48;1584067;90;21185;-71
2021/05/31 02:45:54;;;;;;;1.85;1.07;;;;;;;7.82;77.54;97790.03;1600273;90;21106;-72
2021/05/31 02:48:22;;;;;;;1.47;1.02;;;;;;;7.82;77.57;97782.78;1584232;90;21250;-71
2021/05/31 02:50:50;;;;;;;1.75;1.12;;;;;;;7.80;77.72;97789.36;1600168;90;21070;-63
2021/05/31 02:53:16;;;;;;;0.75;0.70;;;;;;;7.80;78.85;97787.25;1584107;90;21542;-63
2021/05/31 02:55:43;;;;;;;1.42;1.17;;;;;;;7.84;78.16;97788.63;1600025;90;21078;-70
2021/05/31 02:58:12;;;;;;;5.50;2.02;;;;;;;7.88;78.50;97792.12;1584240;90;21166;-70
2021/05/31 03:00:39;;;;;;;1.67;0.95;;;;;;;7.92;79.01;97791.38;1600230;90;21065;-70
2021/05/31 03:03:07;;;;;;;1.95;1.20;;;;;;;7.93;79.60;97795.14;1584115;90;21109;-63
2021/05/31 03:05:35;;;;;;;3.10;1.30;;;;;;;7.99;79.62;97789.91;1600111;90;21226;-69
2021/05/31 03:08:02;;;;;;;2.30;1.40;;;;;;;8.02;79.67;97784.47;1584122;89;21137;-63
2021/05/31 03:10:31;;;;;;;2.90;1.02;;;;;;;8.07;79.74;97790.07;1600288;90;21117;-65
2021/05/31 03:13:02;;;;;;;1.62;1.05;;;;;;;8.07;79.82;97787.02;1584019;90;21087;-64
2021/05/31 03:15:30;;;;;;;2.77;0.80;;;;;;;8.19;78.68;97788.20;1600234;90;21078;-65
2021/05/31 03:17:57;;;;;;;1.65;1.00;;;;;;;8.24;79.34;97788.16;1584502;90;21079;-71
2021/05/31 03:20:29;;;;;;;1.70;0.90;;;;;;;8.33;79.11;97794.31;1597881;89;21627;-70
2021/05/31 03:22:57;;;;;;;1.42;0.95;;;;;;;8.34;79.13;97790.31;1607808;89;21071;-70
2021/05/31 03:25:24;;;;;;;1.12;0.88;;;;;;;8.36;78.92;97793.61;1607563;89;21557;-65
2021/05/31 03:27:53;;;;;;;1.25;0.95;;;;;;;8.47;78.43;97793.48;1603811;88;21161;-64
2021/05/31 03:30:25;;;;;;;1.90;1.00;;;;;;;8.56;78.47;97793.95;1594940;88;21104;-63
2021/05/31 03:32:53;;;;;;;1.65;0.90;;;;;;;8.71;77.57;97784.05;1594974;88;21097;-71
2021/05/31 03:35:20;;;;;;;1.30;1.00;;;;;;;8.82;77.65;97796.05;1594825;89;21069;-72
2021/05/31 03:37:47;;;;;;;1.07;0.85;;;;;;;8.86;77.20;97785.28;1595030;88;21093;-64
2021/05/31 03:40:20;;;;;;;1.22;0.95;;;;;;;8.91;76.73;97783.08;1595366;88;21183;-67
2021/05/31 03:42:45;;;;;;;3.85;1.85;;;;;;;8.93;76.50;97787.66;1594835;88;21215;-65
2021/05/31 03:45:17;;;;;;;7.42;3.55;;;;;;;8.94;76.48;97781.53;1594933;88;21608;-71
2021/05/31 03:47:44;;;;;;;4.33;3.42;;;;;;;9.01;76.25;97785.21;1594509;90;21112;-71
2021/05/31 03:50:12;;;;;;;24.90;12.70;;;;;;;9.17;76.14;97781.23;1595098;88;21284;-64
2021/05/31 03:52:39;;;;;;;10.85;4.70;;;;;;;9.27;75.67;97784.15;1595066;88;21183;-66
2021/05/31 03:55:08;;;;;;;1.55;1.22;;;;;;;9.31;75.24;97786.80;1594607;88;21091;-70
2021/05/31 03:57:36;;;;;;;1.37;0.93;;;;;;;9.32;74.97;97783.73;1595158;88;21151;-64
2021/05/31 04:00:09;;;;;;;1.70;1.17;;;;;;;9.33;74.95;97787.50;1594859;88;21085;-63
2021/05/31 04:02:41;;;;;;;0.65;0.57;;;;;;;9.34;74.85;97790.41;1595173;88;21061;-70
2021/05/31 04:05:12;;;;;;;1.72;1.07;;;;;;;9.48;74.62;97787.39;1595150;88;21599;-72
2021/05/31 04:13:10;;;;;;;1.90;0.95;;;;;;;9.73;73.96;97794.20;1613115;88;21107;-67
2021/05/31 04:15:37;;;;;;;32.20;15.15;;;;;;;9.91;73.84;97788.63;1613248;88;21067;-65
2021/05/31 04:18:05;;;;;;;7.12;4.08;;;;;;;10.04;73.42;97786.50;1613155;88;21095;-63
2021/05/31 04:20:32;;;;;;;2.10;1.62;;;;;;;10.10;72.40;97784.65;1613446;88;21186;-66
2021/05/31 04:22:59;;;;;;;2.95;1.60;;;;;;;10.12;71.95;97782.72;1613611;88;21099;-64
2021/05/31 04:25:26;;;;;;;2.42;1.25;;;;;;;10.20;72.17;97776.83;1612863;88;21079;-66
2021/05/31 04:27:52;;;;;;;1.17;0.98;;;;;;;10.20;71.58;97773.77;1614493;88;21189;-64
2021/05/31 04:30:21;;;;;;;2.00;1.20;;;;;;;10.35;71.48;97781.90;1625905;88;21145;-74
2021/05/31 04:32:48;;;;;;;3.35;1.20;;;;;;;10.43;70.78;97771.58;1626190;88;21082;-66
2021/05/31 04:35:15;;;;;;;1.82;1.30;;;;;;;10.47;70.71;97771.62;1626007;88;21106;-67
2021/05/31 04:37:42;;;;;;;3.55;1.35;;;;;;;10.49;70.28;97773.60;1626090;88;21110;-66
2021/05/31 04:40:09;;;;;;;0.98;0.82;;;;;;;10.43;70.03;97774.17;1626154;88;21565;-74
2021/05/31 04:42:36;;;;;;;1.37;0.93;;;;;;;10.46;69.85;97777.32;1626071;88;21046;-69
2021/05/31 04:45:06;;;;;;;3.50;1.20;;;;;;;10.38;70.15;97775.94;1626145;88;21652;-74
2021/05/31 04:47:32;;;;;;;1.92;1.10;;;;;;;10.32;69.99;97781.69;1625778;88;21078;-74
2021/05/31 04:49:59;;;;;;;1.22;1.00;;;;;;;10.36;70.05;97771.35;1626421;88;21557;-69
2021/05/31 04:52:26;;;;;;;2.75;1.85;;;;;;;10.28;70.16;97769.96;1626647;88;21058;-69
2021/05/31 04:54:53;;;;;;;1.25;0.98;;;;;;;10.48;69.77;97768.89;1626317;88;21102;-68
2021/05/31 04:57:21;;;;;;;0.85;0.78;;;;;;;10.66;69.59;97777.98;1626766;88;21137;-69
2021/05/31 04:59:48;;;;;;;1.17;0.80;;;;;;;10.74;69.40;97766.38;1626431;88;21069;-73
2021/05/31 05:02:15;;;;;;;1.07;0.95;;;;;;;10.91;68.88;97766.86;1626051;88;21081;-67
2021/05/31 05:04:42;;;;;;;0.85;0.75;;;;;;;11.07;68.43;97771.86;1626548;88;21589;-76
2021/05/31 05:07:12;;;;;;;1.90;1.15;;;;;;;11.14;68.31;97776.30;1626258;88;21082;-76
2021/05/31 05:09:39;;;;;;;1.55;1.02;;;;;;;11.15;68.33;97776.64;1626243;88;21081;-67
2021/05/31 05:12:07;;;;;;;1.70;1.12;;;;;;;11.16;68.20;97767.89;1625686;88;21617;-68
2021/05/31 05:14:34;;;;;;;1.90;1.30;;;;;;;11.11;68.98;97765.39;1626101;88;21585;-74
2021/05/31 05:17:03;;;;;;;1.87;1.57;;;;;;;11.09;69.06;97764.23;1625852;88;21526;-76
2021/05/31 05:19:29;;;;;;;2.45;1.37;;;;;;;11.07;68.97;97762.28;1626167;88;21530;-70
2021/05/31 05:21:56;;;;;;;1.57;0.95;;;;;;;11.16;69.24;97755.38;1626224;88;21537;-76
2021/05/31 05:24:23;;;;;;;1.22;1.12;;;;;;;11.23;69.52;97752.02;1625960;88;21081;-69
2021/05/31 05:26:50;;;;;;;1.82;1.00;;;;;;;11.22;69.24;97755.58;1626095;88;21187;-76
2021/05/31 05:29:17;;;;;;;1.72;1.07;;;;;;;11.28;68.63;97754.95;1626102;88;21097;-69
2021/05/31 05:31:44;;;;;;;1.80;1.30;;;;;;;11.34;68.88;97753.55;1626058;88;21050;-69
2021/05/31 05:34:11;;;;;;;2.00;1.22;;;;;;;11.34;68.56;97753.06;1626381;88;21102;-71
2021/05/31 05:36:48;;;;;;;2.08;1.10;;;;;;;11.43;68.34;97761.26;1617991;88;21060;-71
2021/05/31 05:49:27;;;;;;;5.83;1.50;;;;;;;12.02;68.43;97758.84;1598526;89;21173;-74
2021/05/31 05:51:55;;;;;;;2.40;1.62;;;;;;;12.24;68.53;97754.35;1598334;89;21060;-73
2021/05/31 05:54:22;;;;;;;2.12;1.45;;;;;;;12.53;68.47;97752.13;1598618;89;21148;-75
2021/05/31 05:56:49;;;;;;;2.90;1.80;;;;;;;12.65;68.19;97747.44;1598475;89;21124;-71
2021/05/31 05:59:16;;;;;;;2.42;1.40;;;;;;;12.77;68.75;97746.97;1598425;89;21105;-71
2021/05/31 06:01:44;;;;;;;2.22;1.45;;;;;;;12.79;68.26;97745.52;1598070;89;21704;-70
2021/05/31 06:04:11;;;;;;;1.70;1.32;;;;;;;12.93;67.71;97746.65;1596771;89;21068;-70
2021/05/31 06:06:38;;;;;;;4.28;2.77;;;;;;;12.99;67.96;97740.31;1598329;89;21109;-74
2021/05/31 06:09:06;;;;;;;2.98;1.70;;;;;;;13.04;68.31;97741.11;1597853;89;21612;-74
2021/05/31 06:11:33;;;;;;;2.20;1.60;;;;;;;13.27;67.65;97743.41;1598068;89;21622;-75
2021/05/31 06:14:00;;;;;;;2.58;1.55;;;;;;;13.49;67.00;97737.52;1598315;90;21098;-75
2021/05/31 06:16:27;;;;;;;2.00;1.50;;;;;;;13.73;66.95;97732.73;1598170;89;21171;-73
2021/05/31 06:18:53;;;;;;;1.57;1.17;;;;;;;13.93;66.88;97730.03;1598136;89;21096;-74
2021/05/31 06:21:20;;;;;;;1.82;1.37;;;;;;;14.09;65.03;97726.55;1598287;89;21127;-74
2021/05/31 06:23:48;;;;;;;14.93;9.58;;;;;;;14.01;65.19;97730.49;1598284;89;21108;-75
2021/05/31 06:26:15;;;;;;;4.12;3.45;;;;;;;13.89;66.17;97720.13;1573998;90;21072;-75
2021/05/31 06:28:42;;;;;;;3.25;2.15;;;;;;;14.04;66.35;97718.42;1597107;89;21176;-75
2021/05/31 06:31:09;;;;;;;2.27;1.25;;;;;;;14.40;65.88;97720.05;1593748;89;21992;-75
2021/05/31 06:33:36;;;;;;;1.87;1.40;;;;;;;14.69;65.26;97714.97;1593524;90;21145;-71
2021/05/31 06:36:07;;;;;;;2.27;1.37;;;;;;;14.85;64.35;97708.32;1593967;90;21073;-75
2021/05/31 06:38:36;;;;;;;2.12;1.50;;;;;;;15.03;63.98;97716.66;1593941;90;21645;-71
2021/05/31 06:41:05;;;;;;;2.35;1.20;;;;;;;15.14;63.51;97712.80;1593577;89;21155;-74
2021/05/31 06:43:33;;;;;;;2.92;1.82;;;;;;;15.31;62.97;97711.67;1592776;90;21581;-71
2021/05/31 06:46:02;;;;;;;3.12;2.10;;;;;;;15.44;62.50;97707.13;1593481;90;21279;-74
2021/05/31 06:48:29;;;;;;;2.20;1.50;;;;;;;15.15;60.81;97705.27;1593960;89;21148;-70
2021/05/31 06:50:56;;;;;;;1.72;1.50;;;;;;;14.89;61.21;97706.16;1593940;90;21085;-75
2021/05/31 06:53:22;;;;;;;1.32;1.00;;;;;;;14.78;61.49;97708.70;1593435;90;22904;-74
2021/05/31 06:55:49;;;;;;;1.95;1.15;;;;;;;15.35;62.09;97708.20;1577727;89;21184;-72
2021/05/31 06:58:16;;;;;;;1.82;1.50;;;;;;;15.79;60.52;97708.25;1593523;90;21100;-73
2021/05/31 07:00:47;;;;;;;2.35;1.20;;;;;;;15.85;57.42;97702.28;1593765;90;21037;-74
2021/05/31 07:03:13;;;;;;;1.98;1.37;;;;;;;16.29;56.96;97703.52;1589952;89;21081;-72
2021/05/31 07:05:40;;;;;;;3.10;1.22;;;;;;;16.29;57.46;97704.84;1589789;90;21540;-76
2021/05/31 07:08:07;;;;;;;1.87;1.42;;;;;;;16.45;57.23;97704.12;1589754;90;21081;-72
2021/05/31 07:10:34;;;;;;;7.45;1.82;;;;;;;16.58;57.22;97705.58;1589651;90;21140;-72
2021/05/31 07:13:03;;;;;;;2.92;2.08;;;;;;;16.63;57.13;97702.40;1589593;90;21096;-74
2021/05/31 07:15:32;;;;;;;2.62;1.60;;;;;;;16.18;57.26;97706.63;1589733;90;21684;-75
2021/05/31 07:17:59;;;;;;;1.90;1.20;;;;;;;16.41;57.26;97704.17;1589686;90;21101;-74
2021/05/31 07:20:26;;;;;;;2.37;1.22;;;;;;;16.55;56.71;97710.35;1589797;90;21085;-71
2021/05/31 07:22:52;;;;;;;1.90;1.02;;;;;;;16.63;56.13;97702.89;1589718;90;21141;-70
2021/05/31 07:25:20;;;;;;;1.98;1.17;;;;;;;16.51;55.72;97705.98;1589630;90;21085;-70
2021/05/31 07:27:47;;;;;;;1.95;1.32;;;;;;;16.15;56.79;97707.78;1589832;90;21061;-76
2021/05/31 07:30:17;;;;;;;3.08;1.25;;;;;;;16.11;56.87;97703.91;1598490;89;21576;-75
2021/05/31 07:32:44;;;;;;;3.12;1.00;;;;;;;16.24;56.57;97700.14;1601533;89;21124;-72
2021/05/31 07:35:12;;;;;;;1.27;1.10;;;;;;;16.36;56.30;97699.16;1601786;89;21087;-75
2021/05/31 07:37:39;;;;;;;2.12;1.40;;;;;;;16.52;56.13;97694.51;1601183;89;21622;-71
2021/05/31 07:40:10;;;;;;;2.72;1.70;;;;;;;16.46;56.16;97694.42;1601105;89;21212;-74
2021/05/31 07:42:37;;;;;;;4.85;1.20;;;;;;;16.27;56.38;97691.09;1601592;89;21088;-75
2021/05/31 07:45:06;;;;;;;2.15;1.10;;;;;;;16.31;55.34;97692.34;1601489;89;21176;-71
2021/05/31 07:47:34;;;;;;;2.42;1.20;;;;;;;16.16;55.21;97688.45;1601222;89;21179;-73
2021/05/31 07:50:01;;;;;;;2.02;1.30;;;;;;;16.46;54.85;97686.55;1601280;89;21132;-68
2021/05/31 07:52:28;;;;;;;1.75;1.15;;;;;;;16.62;54.50;97683.73;1601215;89;21124;-71
2021/05/31 07:54:56;;;;;;;2.33;1.10;;;;;;;16.81;53.62;97682.31;1601069;89;21120;-71
2021/05/31 07:57:24;;;;;;;1.70;1.30;;;;;;;17.01;53.85;97689.82;1601133;90;21105;-71
2021/05/31 07:59:53;;;;;;;1.05;0.90;;;;;;;17.01;52.62;97684.58;1601358;89;21129;-71
2021/05/31 08:02:23;;;;;;;1.10;0.80;;;;;;;17.22;51.21;97686.36;1601065;89;21600;-68
2021/05/31 08:04:50;;;;;;;1.70;0.90;;;;;;;17.46;52.44;97684.11;1601143;89;21127;-68
2021/05/31 08:07:17;;;;;;;1.42;1.00;;;;;;;17.20;52.42;97673.42;1601133;89;21112;-71
2021/05/31 08:09:45;;;;;;;0.82;0.80;;;;;;;17.41;51.89;97675.18;1601182;89;21083;-68
2021/05/31 08:12:12;;;;;;;1.17;0.85;;;;;;;17.32;52.44;97679.77;1601074;89;21052;-71
2021/05/31 08:14:40;;;;;;;1.42;0.90;;;;;;;17.59;52.88;97674.73;1601078;89;21120;-71
2021/05/31 08:17:08;;;;;;;1.75;0.88;;;;;;;17.68;52.61;97676.17;1601157;89;21096;-68
2021/05/31 08:19:35;;;;;;;1.50;1.30;;;;;;;17.59;51.55;97672.88;1601257;89;21108;-71
2021/05/31 08:22:05;;;;;;;1.47;1.02;;;;;;;16.76;53.34;97663.70;1601050;89;21111;-66
2021/05/31 08:24:32;;;;;;;1.20;0.90;;;;;;;16.85;53.26;97666.48;1601217;89;21187;-71
2021/05/31 08:26:59;;;;;;;2.90;1.00;;;;;;;17.13;53.89;97664.69;1601470;89;21088;-69
2021/05/31 08:29:26;;;;;;;2.52;1.40;;;;;;;17.22;51.74;97667.98;1597843;89;21113;-69
2021/05/31 08:31:54;;;;;;;0.75;0.62;;;;;;;17.16;51.04;97665.62;1590620;90;21723;-72
2021/05/31 08:34:23;;;;;;;2.22;0.88;;;;;;;17.25;51.96;97666.29;1590721;90;21095;-67
2021/05/31 08:36:50;;;;;;;0.60;0.60;;;;;;;17.36;52.65;97665.75;1590292;90;21112;-67
2021/05/31 08:39:17;;;;;;;1.62;0.95;;;;;;;17.48;52.83;97665.52;1590399;90;21146;-68
2021/05/31 08:41:44;;;;;;;0.90;0.68;;;;;;;17.37;52.35;97664.76;1580012;89;21077;-68
2021/05/31 08:44:11;;;;;;;4.53;1.15;;;;;;;17.23;52.18;97663.06;1590365;90;21117;-69
2021/05/31 08:46:38;;;;;;;1.95;1.32;;;;;;;17.15;52.59;97667.14;1590401;90;21612;-68
2021/05/31 08:49:07;;;;;;;0.80;0.80;;;;;;;17.10;53.25;97669.02;1590407;90;21101;-69
2021/05/31 08:51:37;;;;;;;0.93;0.68;;;;;;;16.96;53.44;97666.78;1590169;90;21110;-69
2021/05/31 08:54:07;;;;;;;6.55;1.20;;;;;;;16.84;54.22;97666.19;1590409;90;21133;-67
2021/05/31 08:56:35;;;;;;;1.57;0.95;;;;;;;16.73;54.78;97668.02;1590771;90;21089;-74
2021/05/31 08:59:04;;;;;;;1.50;0.75;;;;;;;16.93;54.48;97665.03;1590465;90;21124;-69
2021/05/31 09:01:31;;;;;;;2.92;0.90;;;;;;;16.78;54.22;97663.00;1590378;90;21045;-68
2021/05/31 09:03:59;;;;;;;0.75;0.68;;;;;;;16.60;54.76;97662.96;1590148;90;21144;-69
2021/05/31 09:06:27;;;;;;;0.68;0.50;;;;;;;16.39;55.33;97653.73;1590501;90;21089;-71
2021/05/31 09:09:00;;;;;;;0.40;0.40;;;;;;;16.73;55.09;97649.13;1590530;90;21104;-70
2021/05/31 09:11:29;;;;;;;0.95;0.60;;;;;;;16.79;54.61;97652.83;1590462;90;21057;-68
2021/05/31 09:13:58;;;;;;;0.80;0.80;;;;;;;16.96;54.66;97643.17;1590444;90;21743;-69
2021/05/31 09:16:27;;;;;;;2.20;1.62;;;;;;;17.08;53.68;97646.08;1590415;90;21057;-67
2021/05/31 09:18:58;;;;;;;3.10;1.57;;;;;;;17.04;53.97;97645.66;1590441;90;21199;-70
2021/05/31 09:21:32;;;;;;;2.50;1.10;;;;;;;16.99;54.55;97644.62;1590421;90;21118;-69
2021/05/31 09:24:10;;;;;;;1.07;0.65;;;;;;;17.22;54.35;97646.50;1603065;89;21176;-68
2021/05/31 09:26:48;;;;;;;0.93;0.62;;;;;;;17.34;53.76;97643.66;1590497;90;21636;-71
2021/05/31 09:29:16;;;;;;;0.80;0.60;;;;;;;17.41;53.05;97640.56;1590361;90;21085;-71
2021/05/31 09:31:44;;;;;;;0.95;0.55;;;;;;;17.32;53.47;97640.89;1590621;90;21112;-68
2021/05/31 09:34:15;;;;;;;4.37;3.33;;;;;;;17.38;53.86;97644.08;1590480;90;21132;-69
2021/05/31 09:36:59;;;;;;;1.17;0.93;;;;;;;17.34;52.28;97639.72;1590416;90;21124;-72
2021/05/31 09:39:40;;;;;;;1.10;0.60;;;;;;;17.48;53.13;97632.71;1590135;90;21740;-69
2021/05/31 09:42:14;;;;;;;0.78;0.60;;;;;;;17.63;53.30;97625.55;1582443;89;21632;-71
2021/05/31 09:44:44;;;;;;;1.25;0.75;;;;;;;17.69;51.83;97622.66;1605177;89;21199;-72
2021/05/31 09:47:12;;;;;;;0.33;0.30;;;;;;;17.78;52.31;97624.12;1605152;89;21176;-71
2021/05/31 09:49:39;;;;;;;0.60;0.50;;;;;;;17.88;52.45;97624.05;1605180;89;21694;-71
2021/05/31 09:52:13;;;;;;;0.70;0.47;;;;;;;17.81;50.58;97623.72;1604772;88;21741;-72
2021/05/31 09:54:43;;;;;;;1.02;0.65;;;;;;;17.93;51.03;97619.52;1581305;89;21072;-71
2021/05/31 09:57:23;;;;;;;1.07;0.60;;;;;;;17.85;50.86;97619.19;1584826;89;21580;-68
2021/05/31 10:00:06;;;;;;;0.60;0.45;;;;;;;18.14;50.46;97615.92;1604773;89;21115;-72
2021/05/31 10:11:23;;;;;;;0.90;0.70;;;;;;;20.26;49.56;97599.91;1515841;91;21735;-70
2021/05/31 10:13:50;;;;;;;0.68;0.68;;;;;;;20.52;49.77;97601.58;1514302;92;21133;-69
2021/05/31 10:16:17;;;;;;;0.95;0.85;;;;;;;20.89;48.79;97595.10;1592756;86;21120;-68
2021/05/31 10:18:45;;;;;;;0.72;0.70;;;;;;;21.01;46.95;97590.19;1626407;86;21081;-72
2021/05/31 10:21:15;;;;;;;0.50;0.50;;;;;;;21.24;47.47;97593.58;1637611;87;21107;-68
2021/05/31 10:23:42;;;;;;;0.90;0.50;;;;;;;21.58;47.64;97581.61;1637551;87;21037;-68
2021/05/31 10:26:11;;;;;;;0.60;0.50;;;;;;;21.63;40.24;97575.16;1626387;88;21556;-68
2021/05/31 10:28:42;;;;;;;0.80;0.50;;;;;;;21.81;44.66;97572.98;1595250;88;21057;-71
2021/05/31 10:31:11;;;;;;;0.50;0.50;;;;;;;21.75;45.25;97572.03;1614309;87;21578;-70
2021/05/31 10:33:39;;;;;;;0.72;0.60;;;;;;;21.62;44.92;97569.06;1626195;88;21045;-69
2021/05/31 10:36:18;;;;;;;0.68;0.62;;;;;;;21.43;45.74;97566.14;1595580;88;21158;-68
2021/05/31 10:38:50;;;;;;;0.95;0.60;;;;;;;21.19;45.45;97563.86;1626427;88;21052;-68
2021/05/31 10:41:20;;;;;;;0.65;0.65;;;;;;;20.88;42.59;97565.77;1595765;88;21098;-71
2021/05/31 10:43:58;;;;;;;0.50;0.50;;;;;;;20.72;44.92;97557.89;1614130;87;21107;-72
2021/05/31 10:46:36;;;;;;;0.60;0.40;;;;;;;20.58;44.26;97563.00;1626124;85;21104;-71
2021/05/31 10:49:05;;;;;;;1.42;1.02;;;;;;;20.45;43.04;97555.17;1595548;88;21208;-71
2021/05/31 10:51:38;;;;;;;0.40;0.40;;;;;;;20.10;44.19;97554.78;1614567;87;21146;-71
2021/05/31 10:54:12;;;;;;;0.80;0.42;;;;;;;20.23;44.45;97547.58;1626374;87;21555;-68
2021/05/31 10:56:45;;;;;;;0.60;0.50;;;;;;;20.35;45.28;97542.45;1595454;88;21561;-68
2021/05/31 10:59:09;;;;;;;0.40;0.33;;;;;;;20.56;44.91;97542.09;1625713;88;21583;-68
2021/05/31 11:01:39;;;;;;;1.20;0.60;;;;;;;20.86;45.06;97538.27;1620773;87;21055;-67
2021/05/31 11:04:16;;;;;;;0.78;0.60;;;;;;;21.01;41.85;97536.08;1626264;88;21101;-72
2021/05/31 11:06:49;;;;;;;0.95;0.62;;;;;;;21.48;40.58;97526.64;1636697;86;21095;-68
2021/05/31 11:09:26;;;;;;;0.88;0.65;;;;;;;22.40;45.37;97524.57;1637372;87;21071;-71
2021/05/31 11:11:55;;;;;;;0.62;0.50;;;;;;;22.36;38.89;97528.19;1645008;85;21124;-71
2021/05/31 11:14:42;;;;;;;1.27;0.70;;;;;;;22.47;40.30;97528.72;1656883;85;21725;-71
2021/05/31 11:17:18;;;;;;;0.82;0.57;;;;;;;22.64;41.74;97521.70;1657069;85;21520;-71
2021/05/31 11:19:49;;;;;;;0.60;0.60;;;;;;;22.31;41.59;97521.45;1657133;85;21032;-68
2021/05/31 11:22:25;;;;;;;0.98;0.78;;;;;;;22.08;39.24;97519.56;1657029;85;21143;-71
2021/05/31 11:25:10;;;;;;;0.60;0.60;;;;;;;22.06;40.77;97513.67;1647924;86;21088;-68
2021/05/31 11:27:42;;;;;;;0.62;0.62;;;;;;;21.97;41.44;97511.09;1656874;85;21060;-68
2021/05/31 11:30:16;;;;;;;0.75;0.50;;;;;;;21.89;41.88;97510.56;1657010;85;21020;-69
2021/05/31 11:32:43;;;;;;;0.50;0.50;;;;;;;21.61;40.02;97500.06;1657176;85;21547;-69
2021/05/31 11:35:13;;;;;;;1.10;0.53;;;;;;;21.93;38.67;97503.83;1657129;85;21047;-69
2021/05/31 11:37:42;;;;;;;0.50;0.50;;;;;;;22.69;40.42;97496.71;1660467;85;21088;-70
2021/05/31 11:40:24;;;;;;;3.12;1.22;;;;;;;23.32;35.16;97503.06;1657032;85;21083;-72
2021/05/31 11:42:55;;;;;;;0.70;0.70;;;;;;;23.49;37.17;97492.06;1642822;85;21064;-72
2021/05/31 11:45:26;;;;;;;0.80;0.78;;;;;;;23.78;38.41;97501.61;1657129;85;21151;-69
2021/05/31 11:47:58;;;;;;;1.02;0.80;;;;;;;23.58;38.68;97502.03;1657045;85;21599;-71
2021/05/31 11:50:26;;;;;;;0.85;0.70;;;;;;;22.62;40.64;97500.48;1656838;85;21028;-69
2021/05/31 11:52:54;;;;;;;0.88;0.60;;;;;;;22.49;42.01;97498.08;1657075;85;21051;-69
2021/05/31 11:55:25;;;;;;;0.80;0.80;;;;;;;21.30;43.19;97503.70;1657154;85;21100;-68
2021/05/31 11:57:52;;;;;;;1.40;0.80;;;;;;;21.24;43.50;97505.11;1657075;85;21548;-71
2021/05/31 12:00:23;;;;;;;0.90;0.80;;;;;;;20.56;45.88;97506.98;1657052;85;21048;-71
2021/05/31 12:02:50;;;;;;;1.00;0.80;;;;;;;20.06;47.43;97518.00;1657160;85;21159;-68
2021/05/31 12:05:34;;;;;;;2.25;0.70;;;;;;;19.68;47.07;97521.48;1657131;85;21096;-67
2021/05/31 12:08:11;;;;;;;1.10;0.65;;;;;;;19.50;44.54;97528.44;1657370;85;21631;-67
2021/05/31 12:10:44;;;;;;;3.95;1.10;;;;;;;18.81;46.18;97527.71;1657092;85;21068;-71